Time;durP1;ratioP1;P1;durP2;ratioP2;P2;SDS_P1;SDS_P2;PMS_P1;PMS_P2;Temp;Humidity;BMP_temperature;BMP_pressure;BME280_temperature;BME280_humidity;BME280_pressure;Samples;Min_cycle;Max_cycle;Signal;HPM_P1;HPM_P2
2021/10/31 00:00:49;;;;;;;166.45;63.80;;;;;;;1.10;78.86;95194.27;1709154;82;21114;-54
2021/10/31 00:03:17;;;;;;;174.70;70.92;;;;;;;0.99;78.80;95189.34;1701991;83;21177;-55
2021/10/31 00:05:44;;;;;;;186.97;68.37;;;;;;;0.85;78.65;95185.19;1726167;82;21584;-58
2021/10/31 00:08:12;;;;;;;160.35;63.63;;;;;;;0.75;78.86;95188.56;1726348;81;21156;-54
2021/10/31 00:10:39;;;;;;;149.00;59.98;;;;;;;0.65;78.82;95187.12;1747307;81;21097;-55
2021/10/31 00:13:07;;;;;;;147.65;61.37;;;;;;;0.55;78.81;95188.58;1704522;82;21148;-54
2021/10/31 00:15:34;;;;;;;171.50;68.22;;;;;;;0.46;78.98;95182.71;1725316;82;21094;-57
2021/10/31 00:18:01;;;;;;;157.15;65.28;;;;;;;0.40;79.02;95186.88;1729775;81;21010;-55
2021/10/31 00:20:28;;;;;;;168.82;68.75;;;;;;;0.36;79.29;95186.64;1721214;82;21437;-55
2021/10/31 00:22:55;;;;;;;177.65;70.22;;;;;;;0.38;79.72;95179.72;1687899;83;21007;-55
2021/10/31 00:25:23;;;;;;;160.80;65.72;;;;;;;0.42;79.67;95177.05;1701675;83;21819;-55
2021/10/31 00:27:50;;;;;;;155.37;66.85;;;;;;;0.45;79.59;95180.37;1728210;81;21022;-55
2021/10/31 00:30:17;;;;;;;144.97;64.80;;;;;;;0.48;79.53;95188.53;1738198;81;21177;-61
2021/10/31 00:32:44;;;;;;;147.10;62.17;;;;;;;0.53;79.71;95182.77;1705732;83;21090;-55
2021/10/31 00:35:13;;;;;;;128.10;56.10;;;;;;;0.57;79.64;95176.80;1703187;83;21096;-54
2021/10/31 00:37:40;;;;;;;158.40;64.30;;;;;;;0.57;79.53;95180.10;1707272;82;21172;-56
2021/10/31 00:40:09;;;;;;;134.10;54.83;;;;;;;0.54;79.42;95172.70;1706251;82;21010;-55
2021/10/31 00:42:37;;;;;;;151.60;58.70;;;;;;;0.49;79.27;95171.70;1717236;82;21023;-55
2021/10/31 00:45:06;;;;;;;158.03;61.48;;;;;;;0.39;79.00;95173.75;1716952;82;21022;-54
2021/10/31 00:47:32;;;;;;;134.37;54.77;;;;;;;0.30;79.21;95163.22;1716251;82;21013;-55
2021/10/31 00:49:59;;;;;;;145.45;57.70;;;;;;;0.29;79.28;95164.38;1719123;82;21119;-55
2021/10/31 00:52:28;;;;;;;116.93;46.90;;;;;;;0.23;79.24;95157.72;1709937;82;21217;-55
2021/10/31 00:54:55;;;;;;;108.00;49.70;;;;;;;0.17;79.43;95160.57;1679392;83;21747;-54
2021/10/31 00:57:22;;;;;;;132.40;55.30;;;;;;;0.16;79.69;95154.95;1705590;82;21062;-55
2021/10/31 00:59:50;;;;;;;104.83;47.65;;;;;;;0.18;79.88;95154.02;1688057;83;21025;-54
2021/10/31 01:02:17;;;;;;;102.42;48.65;;;;;;;0.24;80.06;95157.92;1689664;83;21159;-55
2021/10/31 01:04:52;;;;;;;130.82;55.33;;;;;;;0.30;79.97;95150.26;1730044;81;21429;-55
2021/10/31 01:07:52;;;;;;;123.58;54.25;;;;;;;0.30;79.70;95146.99;1723396;82;20954;-55
2021/10/31 01:10:44;;;;;;;130.30;52.65;;;;;;;0.29;79.32;95148.70;1708923;81;21045;-54
2021/10/31 01:13:36;;;;;;;109.55;49.85;;;;;;;0.26;79.11;95150.80;1729489;81;21568;-54
2021/10/31 01:16:27;;;;;;;112.05;49.13;;;;;;;0.24;79.15;95150.40;1728424;82;21203;-54
2021/10/31 01:19:22;;;;;;;107.25;45.58;;;;;;;0.25;79.44;95140.55;1722402;81;21499;-56
2021/10/31 01:22:20;;;;;;;113.70;47.98;;;;;;;0.29;79.42;95141.94;1723682;82;21011;-55
2021/10/31 01:25:23;;;;;;;105.40;45.10;;;;;;;0.34;79.77;95135.62;1716693;82;21062;-55
2021/10/31 01:27:59;;;;;;;;;;;;;;;0.39;79.78;95133.92;1704989;82;21581;-55
2021/10/31 01:30:44;;;;;;;104.17;44.38;;;;;;;0.37;79.43;95134.87;1710402;83;21210;-55
2021/10/31 01:33:24;;;;;;;128.47;53.95;;;;;;;0.32;79.22;95129.81;1686565;82;21078;-54
2021/10/31 01:36:11;;;;;;;111.85;51.53;;;;;;;0.32;79.20;95132.52;1688597;83;21453;-54
2021/10/31 01:39:00;;;;;;;96.05;44.88;;;;;;;0.33;79.03;95134.06;1705401;82;21478;-55
2021/10/31 01:41:45;;;;;;;97.97;47.70;;;;;;;0.34;79.00;95126.71;1711772;82;21053;-55
2021/10/31 01:44:49;;;;;;;112.52;48.70;;;;;;;0.34;78.92;95119.39;1701916;82;21168;-55
2021/10/31 01:47:28;;;;;;;103.92;49.42;;;;;;;0.32;78.70;95114.93;1686862;83;20958;-55
2021/10/31 01:50:10;;;;;;;104.12;43.55;;;;;;;0.28;78.72;95119.53;1686861;83;21026;-56
2021/10/31 01:52:53;;;;;;;111.52;43.92;;;;;;;0.27;78.64;95112.57;1711848;82;21550;-55
2021/10/31 01:55:22;;;;;;;104.80;47.75;;;;;;;0.20;78.52;95122.55;1703968;82;20995;-56
2021/10/31 01:57:53;;;;;;;113.65;48.35;;;;;;;0.10;78.49;95115.88;1709515;82;21164;-55
2021/10/31 02:00:21;;;;;;;97.10;40.40;;;;;;;0.02;78.53;95110.19;1683895;83;21581;-55
2021/10/31 02:02:48;;;;;;;131.25;54.27;;;;;;;-0.09;78.44;95105.03;1711049;82;21090;-54
2021/10/31 02:05:21;;;;;;;139.47;53.95;;;;;;;-0.24;78.49;95109.52;1716099;82;21074;-54
2021/10/31 02:07:54;;;;;;;146.02;54.48;;;;;;;-0.34;78.76;95108.05;1704085;82;20975;-55
2021/10/31 02:10:21;;;;;;;122.58;52.43;;;;;;;-0.38;79.08;95112.05;1702015;83;21164;-56
2021/10/31 02:12:48;;;;;;;155.82;62.48;;;;;;;-0.36;79.32;95113.05;1707929;82;21522;-54
2021/10/31 02:15:16;;;;;;;134.55;55.75;;;;;;;-0.35;79.33;95115.95;1723962;81;21109;-54
2021/10/31 02:17:49;;;;;;;107.40;49.53;;;;;;;-0.31;79.45;95118.11;1715842;81;21585;-55
2021/10/31 02:20:17;;;;;;;109.83;49.85;;;;;;;-0.28;79.48;95122.78;1732732;81;20967;-55
2021/10/31 02:23:03;;;;;;;121.60;52.00;;;;;;;-0.30;79.26;95125.07;1721171;82;21131;-54
2021/10/31 02:25:30;;;;;;;117.80;53.80;;;;;;;-0.36;79.18;95120.59;1722652;81;21017;-55
2021/10/31 02:27:57;;;;;;;120.22;56.25;;;;;;;-0.36;79.38;95121.94;1724220;82;21469;-56
2021/10/31 02:30:24;;;;;;;133.18;55.35;;;;;;;-0.32;79.33;95121.97;1723740;82;20998;-56
2021/10/31 02:32:51;;;;;;;130.95;52.75;;;;;;;-0.26;79.51;95117.81;1734533;81;21056;-55
2021/10/31 02:35:19;;;;;;;133.32;52.67;;;;;;;-0.20;79.28;95121.14;1721963;82;21453;-55
2021/10/31 02:37:46;;;;;;;114.10;51.18;;;;;;;-0.18;79.02;95116.16;1705558;81;21894;-55
2021/10/31 02:40:15;;;;;;;107.60;50.83;;;;;;;-0.11;78.94;95123.55;1732861;81;21063;-54
2021/10/31 02:42:42;;;;;;;103.67;46.65;;;;;;;-0.07;78.65;95128.44;1712071;82;21087;-55
2021/10/31 02:45:09;;;;;;;118.00;50.58;;;;;;;-0.05;78.42;95118.03;1696404;83;21079;-55
2021/10/31 02:47:55;;;;;;;108.10;48.38;;;;;;;-0.05;78.36;95123.44;1682926;83;21116;-56
2021/10/31 02:50:25;;;;;;;115.08;50.55;;;;;;;-0.04;78.00;95126.34;1722833;82;21559;-55
2021/10/31 02:53:25;;;;;;;114.77;52.00;;;;;;;-0.16;77.74;95129.30;1725792;81;21504;-55
2021/10/31 02:56:23;;;;;;;90.67;40.92;;;;;;;-0.26;77.76;95127.27;1724561;81;21068;-55
2021/10/31 02:59:20;;;;;;;105.90;42.98;;;;;;;-0.38;77.81;95122.09;1736189;81;21096;-55
2021/10/31 03:01:48;;;;;;;118.87;52.38;;;;;;;-0.51;78.00;95124.27;1727232;81;21163;-55
2021/10/31 03:04:17;;;;;;;150.50;61.00;;;;;;;-0.55;78.23;95125.36;1705216;83;21518;-55
2021/10/31 03:06:44;;;;;;;129.45;56.13;;;;;;;-0.55;78.47;95122.66;1724736;82;21071;-56
2021/10/31 03:09:12;;;;;;;136.68;53.85;;;;;;;-0.50;78.73;95115.02;1710325;81;21215;-56
2021/10/31 03:11:40;;;;;;;130.97;52.67;;;;;;;-0.44;78.38;95117.59;1691210;82;21299;-55
2021/10/31 03:14:07;;;;;;;131.43;51.45;;;;;;;-0.49;78.17;95121.97;1739128;81;21150;-53
2021/10/31 03:16:35;;;;;;;126.95;49.67;;;;;;;-0.60;78.03;95114.89;1733207;81;21092;-54
2021/10/31 03:19:02;;;;;;;127.50;48.87;;;;;;;-0.66;78.26;95119.03;1682899;83;21042;-55
2021/10/31 03:21:29;;;;;;;112.90;47.65;;;;;;;-0.70;78.41;95119.57;1707119;82;21009;-57
2021/10/31 03:23:57;;;;;;;114.22;49.80;;;;;;;-0.69;78.72;95121.91;1706837;82;21011;-56
2021/10/31 03:26:26;;;;;;;110.48;48.65;;;;;;;-0.64;78.86;95120.23;1709776;82;21042;-55
2021/10/31 03:28:53;;;;;;;116.42;48.33;;;;;;;-0.57;78.71;95124.95;1701291;83;21070;-54
2021/10/31 03:31:20;;;;;;;151.50;53.40;;;;;;;-0.55;78.46;95119.95;1709447;82;20999;-55
2021/10/31 03:33:46;;;;;;;102.10;43.23;;;;;;;-0.61;78.21;95116.03;1714818;82;20955;-55
2021/10/31 03:36:13;;;;;;;110.37;41.83;;;;;;;-0.65;78.16;95115.98;1704226;82;21173;-54
2021/10/31 03:38:40;;;;;;;100.05;44.23;;;;;;;-0.75;77.96;95111.20;1699294;83;23119;-56
2021/10/31 03:41:07;;;;;;;101.10;43.52;;;;;;;-0.84;78.01;95103.17;1703262;82;21688;-56
2021/10/31 03:43:34;;;;;;;103.32;45.28;;;;;;;-0.84;78.60;95114.77;1713083;82;21102;-54
2021/10/31 03:46:01;;;;;;;99.00;42.45;;;;;;;-0.78;78.44;95108.48;1701075;82;21039;-55
2021/10/31 03:48:28;;;;;;;87.42;38.38;;;;;;;-0.73;78.33;95110.85;1718846;82;21002;-54
2021/10/31 03:50:55;;;;;;;85.83;39.98;;;;;;;-0.70;78.34;95113.61;1680055;83;21802;-55
2021/10/31 03:53:21;;;;;;;99.42;42.03;;;;;;;-0.68;77.99;95110.52;1724990;82;21426;-55
2021/10/31 03:55:48;;;;;;;98.67;42.70;;;;;;;-0.74;77.96;95110.06;1721913;82;21020;-55
2021/10/31 03:58:15;;;;;;;95.30;41.70;;;;;;;-0.75;78.10;95107.74;1721273;82;20963;-56
2021/10/31 04:00:43;;;;;;;108.40;47.75;;;;;;;-0.74;78.12;95108.71;1721974;82;21018;-56
2021/10/31 04:03:11;;;;;;;89.72;39.33;;;;;;;-0.75;78.01;95105.05;1732920;81;21235;-57
2021/10/31 04:05:40;;;;;;;85.47;39.10;;;;;;;-0.74;77.94;95107.95;1727469;81;21149;-55
2021/10/31 04:08:06;;;;;;;73.72;33.80;;;;;;;-0.76;77.90;95104.84;1719108;82;21164;-55
2021/10/31 04:10:34;;;;;;;59.58;29.67;;;;;;;-0.78;77.64;95101.14;1729448;81;21094;-57
2021/10/31 04:13:03;;;;;;;80.97;40.83;;;;;;;-0.82;77.53;95098.18;1705020;82;21006;-56
2021/10/31 04:15:30;;;;;;;77.53;40.85;;;;;;;-0.81;77.84;95093.78;1704443;82;21139;-55
2021/10/31 04:17:57;;;;;;;88.82;38.28;;;;;;;-0.77;78.44;95087.08;1701270;82;21074;-56
2021/10/31 04:20:24;;;;;;;74.75;35.13;;;;;;;-0.74;78.18;95094.44;1709861;83;21458;-53
2021/10/31 04:22:51;;;;;;;76.17;36.68;;;;;;;-0.85;77.69;95091.61;1715768;82;21104;-55
2021/10/31 04:25:18;;;;;;;76.15;38.92;;;;;;;-0.97;77.73;95090.48;1683704;82;20987;-55
2021/10/31 04:27:45;;;;;;;79.15;38.20;;;;;;;-1.01;77.67;95091.56;1716998;82;21762;-55
2021/10/31 04:30:12;;;;;;;78.30;34.50;;;;;;;-1.04;77.77;95096.34;1703847;82;21065;-54
2021/10/31 04:32:40;;;;;;;80.45;35.58;;;;;;;-1.01;77.94;95096.97;1706477;82;21120;-56
2021/10/31 04:35:09;;;;;;;76.75;35.00;;;;;;;-0.96;77.95;95089.92;1694950;83;21086;-56
2021/10/31 04:37:38;;;;;;;69.67;33.35;;;;;;;-0.93;77.70;95092.64;1656752;85;21065;-55
2021/10/31 04:40:10;;;;;;;52.53;27.15;;;;;;;-0.95;77.44;95086.08;1726779;82;21769;-55
2021/10/31 04:42:39;;;;;;;51.60;27.62;;;;;;;-0.94;77.51;95083.58;1725204;81;20998;-55
2021/10/31 04:45:07;;;;;;;60.38;31.10;;;;;;;-0.93;77.59;95082.44;1740602;81;21426;-55
2021/10/31 04:47:35;;;;;;;73.15;32.55;;;;;;;-0.90;77.83;95078.44;1730299;81;21589;-56
2021/10/31 04:50:02;;;;;;;80.50;34.92;;;;;;;-0.82;77.96;95081.42;1722932;82;21243;-54
2021/10/31 04:52:31;;;;;;;90.75;38.17;;;;;;;-0.76;77.88;95079.19;1730085;81;21902;-54
2021/10/31 04:54:58;;;;;;;74.95;38.40;;;;;;;-0.74;77.44;95076.89;1711544;82;21038;-56
2021/10/31 04:57:26;;;;;;;70.65;34.90;;;;;;;-0.82;77.19;95083.33;1691527;82;21579;-55
2021/10/31 04:59:53;;;;;;;72.08;33.60;;;;;;;-0.90;77.23;95076.30;1709212;82;21570;-55
2021/10/31 05:02:19;;;;;;;81.47;37.20;;;;;;;-1.01;77.15;95071.31;1708860;82;20976;-56
2021/10/31 05:04:46;;;;;;;84.75;34.35;;;;;;;-1.11;77.22;95080.83;1707187;83;21493;-56
2021/10/31 05:07:16;;;;;;;84.58;33.10;;;;;;;-1.18;77.50;95078.05;1712375;82;21013;-56
2021/10/31 05:09:43;;;;;;;84.32;34.92;;;;;;;-1.18;77.67;95078.63;1710791;82;21468;-56
2021/10/31 05:12:11;;;;;;;91.22;34.55;;;;;;;-1.17;77.71;95079.59;1703246;82;21089;-56
2021/10/31 05:14:39;;;;;;;97.33;36.40;;;;;;;-1.18;77.66;95079.39;1713803;82;21101;-56
2021/10/31 05:17:08;;;;;;;94.58;37.45;;;;;;;-1.18;77.68;95075.93;1694836;83;21192;-55
2021/10/31 05:19:34;;;;;;;91.40;38.10;;;;;;;-1.22;77.74;95070.48;1679816;83;21002;-54
2021/10/31 05:22:02;;;;;;;81.45;38.05;;;;;;;-1.18;78.00;95069.95;1738076;81;21018;-57
2021/10/31 05:24:29;;;;;;;89.50;41.65;;;;;;;-1.16;77.95;95076.34;1729357;81;21471;-55
2021/10/31 05:26:56;;;;;;;82.57;43.75;;;;;;;-1.19;77.67;95075.70;1722924;82;21098;-57
2021/10/31 05:29:23;;;;;;;83.58;42.23;;;;;;;-1.26;77.58;95082.35;1726301;82;21176;-55
2021/10/31 05:31:49;;;;;;;93.42;42.90;;;;;;;-1.29;77.65;95079.80;1704473;83;20998;-57
2021/10/31 05:34:16;;;;;;;135.12;59.45;;;;;;;-1.26;77.72;95085.05;1719950;82;20963;-56
2021/10/31 05:36:45;;;;;;;99.62;45.75;;;;;;;-1.23;77.80;95083.77;1723990;82;21497;-56
2021/10/31 05:39:12;;;;;;;74.70;39.30;;;;;;;-1.14;78.01;95079.45;1731274;81;20996;-56
2021/10/31 05:41:38;;;;;;;129.23;62.78;;;;;;;-1.03;77.71;95087.11;1710801;82;21776;-56
2021/10/31 05:44:05;;;;;;;92.33;45.75;;;;;;;-1.03;77.40;95087.89;1736238;81;21094;-57
2021/10/31 05:46:33;;;;;;;93.60;45.25;;;;;;;-1.09;77.21;95094.77;1691595;83;21087;-57
2021/10/31 05:49:01;;;;;;;89.03;45.98;;;;;;;-1.17;76.99;95093.09;1667188;84;21258;-55
2021/10/31 05:51:30;;;;;;;79.90;45.03;;;;;;;-1.22;77.00;95096.11;1728609;81;21099;-56
2021/10/31 05:53:57;;;;;;;93.20;50.92;;;;;;;-1.26;77.20;95099.34;1728990;81;21322;-56
2021/10/31 05:56:24;;;;;;;98.80;52.78;;;;;;;-1.20;77.53;95103.83;1656277;83;20983;-56
2021/10/31 05:58:51;;;;;;;90.70;48.48;;;;;;;-1.10;77.69;95099.16;1692071;83;21097;-56
2021/10/31 06:01:19;;;;;;;99.50;50.95;;;;;;;-0.97;77.74;95100.52;1727654;81;21034;-58
2021/10/31 06:03:46;;;;;;;109.10;54.70;;;;;;;-0.86;77.55;95104.11;1728922;81;20990;-56
2021/10/31 06:06:13;;;;;;;111.95;57.93;;;;;;;-0.83;77.15;95092.58;1722231;82;21184;-56
2021/10/31 06:08:40;;;;;;;120.40;61.92;;;;;;;-0.82;77.11;95094.13;1696393;83;21704;-57
2021/10/31 06:11:08;;;;;;;120.28;63.23;;;;;;;-0.82;77.15;95094.92;1726671;82;21598;-57
2021/10/31 06:13:37;;;;;;;161.37;83.37;;;;;;;-0.73;77.38;95096.00;1654611;83;21113;-56
2021/10/31 06:16:06;;;;;;;289.87;126.75;;;;;;;-0.65;77.36;95100.33;1672680;85;21064;-55
2021/10/31 06:18:36;;;;;;;216.35;102.97;;;;;;;-0.56;77.50;95092.15;1727447;81;20938;-58
2021/10/31 06:21:05;;;;;;;238.60;114.37;;;;;;;-0.43;77.74;95102.16;1729657;81;21513;-57
2021/10/31 06:23:34;;;;;;;231.43;110.40;;;;;;;-0.25;77.73;95104.50;1697065;81;20991;-56
2021/10/31 06:26:04;;;;;;;180.03;88.82;;;;;;;-0.09;77.52;95102.33;1730755;81;21049;-57
2021/10/31 06:28:31;;;;;;;134.03;77.78;;;;;;;0.00;77.62;95103.61;1702325;82;21093;-57
2021/10/31 06:30:58;;;;;;;124.05;74.90;;;;;;;0.10;77.86;95103.71;1691963;83;21794;-56
2021/10/31 06:33:26;;;;;;;130.05;71.42;;;;;;;0.20;77.97;95094.14;1669172;84;21045;-56
2021/10/31 06:35:53;;;;;;;118.95;68.55;;;;;;;0.32;78.11;95103.31;1724031;82;21070;-57
2021/10/31 06:38:21;;;;;;;107.47;63.73;;;;;;;0.45;78.19;95103.24;1720500;82;21420;-58
2021/10/31 06:40:49;;;;;;;96.95;52.40;;;;;;;0.52;78.35;95105.44;1712358;81;21018;-56
2021/10/31 06:43:16;;;;;;;80.47;49.70;;;;;;;0.62;78.60;95100.66;1704242;82;22019;-56
2021/10/31 06:45:44;;;;;;;73.55;47.05;;;;;;;0.70;78.73;95097.44;1729378;81;21028;-57
2021/10/31 06:48:11;;;;;;;80.83;47.17;;;;;;;0.82;78.85;95092.52;1725841;82;21071;-57
2021/10/31 06:50:38;;;;;;;88.17;45.00;;;;;;;0.95;78.75;95091.63;1726715;81;21057;-54
2021/10/31 06:53:07;;;;;;;138.92;67.78;;;;;;;1.09;78.84;95097.91;1703350;82;21037;-57
2021/10/31 06:55:34;;;;;;;105.85;54.70;;;;;;;1.20;78.73;95094.69;1723121;82;21963;-56
2021/10/31 06:58:03;;;;;;;84.55;42.93;;;;;;;1.30;78.55;95093.95;1738015;81;21139;-56
2021/10/31 07:00:33;;;;;;;79.92;40.98;;;;;;;1.36;78.55;95093.02;1689180;83;21129;-57
2021/10/31 07:03:00;;;;;;;79.40;44.98;;;;;;;1.46;78.66;95087.64;1715123;81;21443;-55
2021/10/31 07:05:26;;;;;;;67.22;39.08;;;;;;;1.58;78.72;95087.32;1702409;83;20952;-57
2021/10/31 07:07:54;;;;;;;64.95;37.83;;;;;;;1.73;78.75;95084.83;1720472;82;21885;-57
2021/10/31 07:10:21;;;;;;;56.75;35.43;;;;;;;1.87;78.75;95087.59;1677235;83;21645;-56
2021/10/31 07:12:48;;;;;;;61.08;37.93;;;;;;;1.94;78.75;95080.84;1659589;85;21572;-59
2021/10/31 07:15:14;;;;;;;57.73;35.85;;;;;;;2.07;78.89;95077.39;1731286;81;21038;-58
2021/10/31 07:17:44;;;;;;;49.73;30.00;;;;;;;2.21;78.90;95077.98;1734796;82;21158;-57
2021/10/31 07:20:13;;;;;;;46.83;32.42;;;;;;;2.32;78.82;95070.64;1701365;83;21149;-60
2021/10/31 07:22:42;;;;;;;37.67;26.35;;;;;;;2.46;78.72;95075.49;1733882;81;20958;-57
2021/10/31 07:25:11;;;;;;;51.88;29.77;;;;;;;2.62;78.57;95065.59;1721149;82;21008;-57
2021/10/31 07:27:38;;;;;;;45.60;29.25;;;;;;;2.81;78.43;95069.27;1705442;82;20973;-57
2021/10/31 07:30:07;;;;;;;43.98;27.30;;;;;;;3.02;78.39;95071.98;1730301;81;21008;-58
2021/10/31 07:32:34;;;;;;;42.48;25.68;;;;;;;3.26;78.16;95061.03;1681156;84;21795;-57
2021/10/31 07:35:03;;;;;;;39.13;26.45;;;;;;;3.51;77.87;95059.02;1682267;82;21136;-57
2021/10/31 07:37:31;;;;;;;40.52;25.57;;;;;;;3.75;77.20;95057.56;1691635;83;21133;-57
2021/10/31 07:39:59;;;;;;;36.85;24.27;;;;;;;3.93;76.80;95056.89;1716505;82;21018;-57
2021/10/31 07:42:30;;;;;;;32.88;20.10;;;;;;;4.06;76.62;95054.48;1688675;83;21542;-56
2021/10/31 07:44:58;;;;;;;28.77;18.37;;;;;;;4.15;76.51;95044.70;1729784;81;21936;-58
2021/10/31 07:47:25;;;;;;;29.07;17.15;;;;;;;4.24;76.21;95051.83;1729734;82;20990;-56
2021/10/31 07:49:53;;;;;;;25.48;16.95;;;;;;;4.31;75.74;95046.92;1720461;82;21065;-56
2021/10/31 07:52:20;;;;;;;20.37;13.05;;;;;;;4.44;74.99;95044.67;1729543;81;21006;-57
2021/10/31 07:54:48;;;;;;;19.30;13.15;;;;;;;4.58;73.58;95044.58;1721378;82;21629;-57
2021/10/31 07:57:18;;;;;;;20.52;12.05;;;;;;;4.73;72.27;95035.11;1736980;81;21159;-57
2021/10/31 07:59:45;;;;;;;19.67;13.40;;;;;;;4.87;71.05;95035.57;1707267;82;21033;-57
2021/10/31 08:02:13;;;;;;;27.27;18.98;;;;;;;5.02;69.96;95038.35;1687486;83;21498;-57
2021/10/31 08:04:39;;;;;;;26.90;16.40;;;;;;;5.12;69.49;95029.31;1667405;85;20978;-57
2021/10/31 08:07:06;;;;;;;33.10;18.77;;;;;;;5.26;69.17;95023.87;1716831;82;21066;-57
2021/10/31 08:09:33;;;;;;;27.58;18.30;;;;;;;5.41;68.85;95021.77;1695353;82;21778;-59
2021/10/31 08:11:59;;;;;;;28.83;18.55;;;;;;;5.58;68.39;95029.73;1698274;82;21042;-58
2021/10/31 08:14:28;;;;;;;19.05;13.40;;;;;;;5.78;68.09;95019.77;1713213;82;21066;-58
2021/10/31 08:16:55;;;;;;;29.98;19.45;;;;;;;5.97;67.12;95017.00;1713374;82;21467;-56
2021/10/31 08:19:25;;;;;;;30.57;17.10;;;;;;;6.13;66.75;95010.34;1704691;82;20997;-59
2021/10/31 08:21:53;;;;;;;40.08;22.55;;;;;;;6.33;66.30;95003.02;1681888;81;22067;-57
2021/10/31 08:24:20;;;;;;;30.10;18.57;;;;;;;6.54;65.93;95002.08;1690947;83;21471;-58
2021/10/31 08:26:48;;;;;;;32.40;18.32;;;;;;;6.78;65.28;94998.77;1738066;81;20966;-57
2021/10/31 08:29:18;;;;;;;33.83;17.45;;;;;;;7.03;64.21;94997.76;1711867;82;21058;-57
2021/10/31 08:31:45;;;;;;;23.42;15.35;;;;;;;7.24;63.35;94991.28;1724813;81;21113;-56
2021/10/31 08:34:13;;;;;;;25.48;17.25;;;;;;;7.42;62.26;94985.66;1706441;82;21855;-55
2021/10/31 08:36:40;;;;;;;23.75;14.80;;;;;;;7.60;62.05;94990.77;1720895;81;21532;-57
2021/10/31 08:39:07;;;;;;;17.85;13.32;;;;;;;7.75;61.41;94981.86;1722735;82;21069;-58
2021/10/31 08:41:35;;;;;;;21.27;12.55;;;;;;;7.95;60.31;94975.76;1703390;82;21510;-57
2021/10/31 08:44:02;;;;;;;22.10;13.68;;;;;;;8.20;59.69;94971.09;1723328;82;21037;-56
2021/10/31 08:46:30;;;;;;;22.42;14.90;;;;;;;8.45;58.71;94972.69;1694024;83;21819;-57
2021/10/31 08:48:57;;;;;;;27.52;15.23;;;;;;;8.65;57.99;94965.91;1687486;83;21091;-57
2021/10/31 08:51:25;;;;;;;27.02;16.25;;;;;;;8.87;57.27;94960.66;1689460;83;21062;-57
2021/10/31 08:53:53;;;;;;;31.60;16.97;;;;;;;9.12;56.04;94961.57;1726798;81;21187;-57
2021/10/31 08:56:25;;;;;;;32.28;19.20;;;;;;;9.35;55.37;94958.59;1725634;81;21231;-57
2021/10/31 08:58:52;;;;;;;33.40;20.68;;;;;;;9.57;55.17;94958.95;1728008;81;21975;-57
2021/10/31 09:01:19;;;;;;;39.53;22.45;;;;;;;9.85;54.48;94958.73;1671278;83;21038;-57
2021/10/31 09:03:47;;;;;;;34.95;23.73;;;;;;;10.01;53.70;94956.70;1690193;83;21034;-56
2021/10/31 09:06:14;;;;;;;33.90;22.25;;;;;;;10.12;53.90;94953.63;1725736;82;21451;-59
2021/10/31 09:08:41;;;;;;;33.08;21.87;;;;;;;10.29;54.39;94946.81;1725908;81;21010;-57
2021/10/31 09:11:12;;;;;;;36.00;21.90;;;;;;;10.51;54.50;94940.22;1704092;82;21135;-57
2021/10/31 09:13:39;;;;;;;34.50;19.35;;;;;;;10.79;53.13;94940.06;1699335;82;21403;-59
2021/10/31 09:16:06;;;;;;;30.95;17.17;;;;;;;11.05;53.11;94933.89;1730157;81;21240;-58
2021/10/31 09:18:33;;;;;;;24.72;18.40;;;;;;;11.24;51.88;94931.45;1730082;81;21097;-58
2021/10/31 09:21:02;;;;;;;27.48;19.30;;;;;;;11.40;50.57;94929.91;1734999;81;21133;-57
2021/10/31 09:23:29;;;;;;;24.02;15.72;;;;;;;11.51;49.87;94925.55;1725386;82;21224;-57
2021/10/31 09:25:58;;;;;;;23.40;17.57;;;;;;;11.69;49.43;94922.95;1731637;81;37307;-59
2021/10/31 09:28:26;;;;;;;25.72;17.65;;;;;;;11.83;48.73;94916.91;1691145;82;21023;-57
2021/10/31 09:30:54;;;;;;;23.75;16.90;;;;;;;12.01;48.15;94919.77;1721014;82;21053;-57
2021/10/31 09:33:21;;;;;;;28.17;17.57;;;;;;;12.21;47.96;94913.28;1670840;84;21492;-57
2021/10/31 09:35:55;;;;;;;25.72;17.20;;;;;;;12.43;47.64;94913.23;1688585;83;21122;-58
2021/10/31 09:38:21;;;;;;;45.78;27.32;;;;;;;12.66;47.13;94905.93;1706706;81;21734;-58
2021/10/31 09:40:49;;;;;;;37.50;24.63;;;;;;;13.05;46.01;94909.87;1690064;83;21101;-59
2021/10/31 09:43:16;;;;;;;35.68;18.40;;;;;;;13.56;45.25;94890.84;1703641;82;21058;-58
2021/10/31 09:45:43;;;;;;;27.02;14.90;;;;;;;14.17;45.03;94886.27;1699167;82;20990;-59
2021/10/31 09:48:12;;;;;;;25.20;14.83;;;;;;;14.77;44.09;94889.67;1731533;81;21136;-58
2021/10/31 09:50:48;;;;;;;16.00;11.12;;;;;;;15.41;42.18;94891.59;1685041;83;21139;-58
2021/10/31 09:53:17;;;;;;;15.58;9.13;;;;;;;15.97;41.95;94888.61;1726027;82;21555;-56
2021/10/31 09:55:45;;;;;;;9.68;7.53;;;;;;;16.40;40.65;94880.89;1726148;82;21014;-58
2021/10/31 09:58:19;;;;;;;13.50;7.83;;;;;;;16.66;39.50;94873.45;1721180;82;20999;-59
2021/10/31 10:00:49;;;;;;;19.25;7.70;;;;;;;16.90;39.33;94869.91;1699981;82;21215;-57
2021/10/31 10:03:35;;;;;;;11.53;7.62;;;;;;;17.21;38.42;94870.04;1712711;82;21582;-60
2021/10/31 10:06:17;;;;;;;14.03;8.90;;;;;;;17.58;37.57;94866.84;1706486;82;21034;-59
2021/10/31 10:09:08;;;;;;;21.85;15.05;;;;;;;17.97;36.54;94863.86;1704415;82;21466;-58
2021/10/31 10:11:41;;;;;;;16.35;8.70;;;;;;;18.41;35.23;94856.05;1707489;82;20967;-58
2021/10/31 10:14:14;;;;;;;;;;;;;;;18.99;33.50;94857.45;1700724;82;21171;-58
2021/10/31 10:16:41;;;;;;;17.52;10.55;;;;;;;19.53;32.91;94845.80;1727329;81;28072;-58
2021/10/31 10:19:20;;;;;;;14.80;10.05;;;;;;;20.13;32.62;94847.98;1733320;81;20999;-57
2021/10/31 10:22:03;;;;;;;15.65;10.10;;;;;;;20.63;32.27;94838.98;1725621;81;21166;-57
2021/10/31 10:24:32;;;;;;;16.67;10.82;;;;;;;21.16;31.55;94839.42;1676675;83;20970;-57
2021/10/31 10:27:02;;;;;;;13.98;7.97;;;;;;;21.77;30.19;94836.38;1660515;84;21210;-58
2021/10/31 10:29:33;;;;;;;9.10;6.20;;;;;;;22.20;28.62;94829.11;1692091;83;21621;-58
2021/10/31 10:32:03;;;;;;;10.03;6.75;;;;;;;22.42;27.76;94831.77;1709722;81;21144;-55
2021/10/31 10:34:42;;;;;;;11.45;7.30;;;;;;;22.60;27.65;94822.70;1702520;82;20982;-58
2021/10/31 10:37:10;;;;;;;11.60;6.22;;;;;;;22.89;26.92;94816.94;1725961;82;21060;-59
2021/10/31 10:39:38;;;;;;;12.30;6.85;;;;;;;23.07;26.78;94821.23;1715962;82;21133;-59
2021/10/31 10:42:05;;;;;;;14.15;9.10;;;;;;;23.32;26.49;94804.50;1725201;82;21451;-59
2021/10/31 10:44:35;;;;;;;11.33;7.80;;;;;;;23.76;25.90;94801.12;1724052;81;21100;-57
2021/10/31 10:47:07;;;;;;;10.80;7.60;;;;;;;24.29;25.50;94799.48;1705561;82;21088;-58
2021/10/31 10:49:38;;;;;;;17.07;10.18;;;;;;;24.82;24.88;94793.37;1703110;82;21529;-59
2021/10/31 10:52:11;;;;;;;14.50;11.50;;;;;;;25.20;24.14;94786.28;1664069;83;21153;-57
2021/10/31 10:54:41;;;;;;;17.37;10.55;;;;;;;25.48;23.95;94785.84;1705188;82;20967;-59
2021/10/31 10:57:09;;;;;;;18.95;8.85;;;;;;;25.89;23.77;94783.86;1645962;84;21006;-57
2021/10/31 10:59:37;;;;;;;12.13;7.85;;;;;;;26.55;23.13;94785.27;1722801;82;21434;-59
2021/10/31 11:02:15;;;;;;;12.88;6.78;;;;;;;27.15;22.48;94775.88;1722708;82;21062;-60
2021/10/31 11:04:46;;;;;;;9.75;5.92;;;;;;;27.66;22.58;94770.33;1719428;81;21136;-59
2021/10/31 11:07:13;;;;;;;9.33;5.40;;;;;;;28.05;22.12;94765.80;1704139;82;21038;-58
2021/10/31 11:09:46;;;;;;;11.88;5.92;;;;;;;28.24;21.75;94759.83;1707568;82;20966;-57
2021/10/31 11:12:30;;;;;;;12.23;5.95;;;;;;;28.52;21.32;94757.64;1701725;82;21148;-58
2021/10/31 11:15:04;;;;;;;21.37;6.75;;;;;;;28.94;20.93;94757.39;1706374;82;21152;-57
2021/10/31 11:17:33;;;;;;;7.97;5.35;;;;;;;29.45;20.06;94748.62;1718971;82;21073;-57
2021/10/31 11:20:00;;;;;;;12.28;6.50;;;;;;;29.85;19.76;94750.91;1685950;83;21023;-59
2021/10/31 11:22:28;;;;;;;15.03;7.72;;;;;;;30.15;19.47;94746.61;1704583;82;20959;-58
2021/10/31 11:24:55;;;;;;;19.27;7.85;;;;;;;30.38;18.85;94745.83;1712301;82;20981;-57
2021/10/31 11:27:25;;;;;;;13.48;6.25;;;;;;;30.57;18.55;94744.69;1712557;82;21014;-59
2021/10/31 11:29:55;;;;;;;9.63;5.92;;;;;;;30.68;18.83;94741.37;1712806;82;20983;-58
2021/10/31 11:32:24;;;;;;;7.42;4.12;;;;;;;30.86;18.30;94738.67;1709381;82;21712;-58